Time;durP1;ratioP1;P1;durP2;ratioP2;P2;SDS_P1;SDS_P2;PMS_P1;PMS_P2;Temp;Humidity;BMP_temperature;BMP_pressure;BME280_temperature;BME280_humidity;BME280_pressure;Samples;Min_cycle;Max_cycle;Signal;HPM_P1;HPM_P2
2022/05/03 00:02:29;;;;;;;4.03;1.90;;;;;;;;;;5063074;28;20184;-65
2022/05/03 00:05:07;;;;;;;4.70;1.90;;;;;;;;;;5068397;28;20587;-66
2022/05/03 00:07:43;;;;;;;3.07;1.80;;;;;;;;;;5063008;28;20236;-66
2022/05/03 00:10:14;;;;;;;2.37;1.87;;;;;;;;;;5070574;28;20188;-66
2022/05/03 00:12:51;;;;;;;4.10;2.30;;;;;;;;;;5064288;28;20189;-66
2022/05/03 00:15:20;;;;;;;4.60;2.47;;;;;;;;;;5065403;28;20189;-68
2022/05/03 00:17:45;;;;;;;3.57;1.83;;;;;;;;;;5078030;28;20216;-66
2022/05/03 00:20:11;;;;;;;3.43;2.07;;;;;;;;;;5071366;28;20173;-66
2022/05/03 00:22:36;;;;;;;4.53;2.00;;;;;;;;;;5070763;28;20188;-66
2022/05/03 00:25:03;;;;;;;2.60;2.10;;;;;;;;;;5068655;28;20744;-66
2022/05/03 00:27:28;;;;;;;5.77;2.80;;;;;;;;;;5062880;28;20181;-65
2022/05/03 00:29:56;;;;;;;4.40;2.27;;;;;;;;;;5070202;28;20651;-65
2022/05/03 00:32:22;;;;;;;6.27;2.23;;;;;;;;;;5070998;28;20227;-65
2022/05/03 00:34:49;;;;;;;4.57;2.60;;;;;;;;;;5070367;28;20535;-65
2022/05/03 00:37:14;;;;;;;4.07;2.40;;;;;;;;;;5065051;28;20184;-65
2022/05/03 00:39:39;;;;;;;3.20;2.50;;;;;;;;;;5069332;28;20184;-65
2022/05/03 00:42:21;;;;;;;3.27;2.33;;;;;;;;;;5071392;28;20271;-66
2022/05/03 00:45:04;;;;;;;4.40;2.87;;;;;;;;;;5066760;28;20205;-66
2022/05/03 00:47:54;;;;;;;5.33;2.57;;;;;;;;;;5066805;28;20647;-66
2022/05/03 00:50:47;;;;;;;5.80;2.70;;;;;;;;;;5068138;28;20554;-66
2022/05/03 00:53:29;;;;;;;6.33;2.57;;;;;;;;;;5056214;28;20636;-66
2022/05/03 00:56:09;;;;;;;4.03;2.90;;;;;;;;;;5068581;28;20176;-66
2022/05/03 00:58:48;;;;;;;5.70;2.83;;;;;;;;;;5057468;28;20209;-66
2022/05/03 01:01:34;;;;;;;3.47;2.67;;;;;;;;;;5070402;28;20664;-66
2022/05/03 01:04:17;;;;;;;5.93;2.90;;;;;;;;;;5052584;28;20236;-66
2022/05/03 01:06:53;;;;;;;6.60;2.90;;;;;;;;;;5067455;28;20581;-66
2022/05/03 01:09:40;;;;;;;4.13;2.90;;;;;;;;;;5068389;28;20747;-65
2022/05/03 01:12:22;;;;;;;4.77;3.20;;;;;;;;;;5069247;28;20589;-65
2022/05/03 01:15:07;;;;;;;8.70;3.40;;;;;;;;;;5066811;28;20226;-65
2022/05/03 01:17:41;;;;;;;5.77;3.13;;;;;;;;;;5067141;28;20189;-66
2022/05/03 01:20:08;;;;;;;4.83;3.10;;;;;;;;;;5066423;28;20271;-66
2022/05/03 01:22:40;;;;;;;4.53;3.03;;;;;;;;;;5064232;28;20219;-66
2022/05/03 01:25:33;;;;;;;5.03;3.40;;;;;;;;;;5069949;28;20549;-65
2022/05/03 01:28:21;;;;;;;6.00;3.63;;;;;;;;;;5066404;28;20181;-65
2022/05/03 01:30:49;;;;;;;5.97;3.10;;;;;;;;;;5069033;28;20283;-65
2022/05/03 01:33:20;;;;;;;7.07;3.30;;;;;;;;;;5063572;28;20185;-65
2022/05/03 01:35:56;;;;;;;8.40;3.70;;;;;;;;;;5068589;28;20173;-65
2022/05/03 01:38:37;;;;;;;6.47;3.67;;;;;;;;;;5069390;28;20604;-65
2022/05/03 01:41:18;;;;;;;4.37;3.20;;;;;;;;;;5067958;28;20481;-65
2022/05/03 01:44:04;;;;;;;5.50;3.37;;;;;;;;;;5069776;28;20346;-65
2022/05/03 01:46:34;;;;;;;6.57;4.07;;;;;;;;;;5065498;28;20187;-65
2022/05/03 01:52:15;;;;;;;8.67;4.13;;;;;;;;;;5066373;28;20199;-65
2022/05/03 01:55:07;;;;;;;5.30;3.50;;;;;;;;;;5068344;28;20268;-65
2022/05/03 01:58:01;;;;;;;6.43;3.53;;;;;;;;;;5069315;28;20262;-65
2022/05/03 02:00:27;;;;;;;5.93;3.70;;;;;;;;;;5070036;28;20845;-65
2022/05/03 02:03:01;;;;;;;6.73;3.80;;;;;;;;;;5076309;28;20180;-65
2022/05/03 02:06:08;;;;;;;8.13;3.83;;;;;;;;;;5066096;28;20199;-65
2022/05/03 02:09:01;;;;;;;6.23;3.70;;;;;;;;;;5056091;28;20297;-65
2022/05/03 02:11:34;;;;;;;6.33;4.03;;;;;;;;;;5059647;28;20271;-65
2022/05/03 02:16:59;;;;;;;7.73;3.87;;;;;;;;;;5064933;28;20196;-65
2022/05/03 02:19:46;;;;;;;7.97;4.63;;;;;;;;;;5055346;28;20186;-66
2022/05/03 02:22:30;;;;;;;8.13;4.00;;;;;;;;;;5056844;28;20225;-65
2022/05/03 02:25:36;;;;;;;6.50;3.90;;;;;;;;;;5063184;28;20567;-65
2022/05/03 02:28:27;;;;;;;6.10;4.00;;;;;;;;;;5067374;28;20192;-65
2022/05/03 02:30:54;;;;;;;7.23;3.80;;;;;;;;;;5066303;28;20200;-65
2022/05/03 02:33:25;;;;;;;7.37;4.43;;;;;;;;;;5065589;28;20226;-65
2022/05/03 02:35:55;;;;;;;7.90;4.70;;;;;;;;;;5067839;28;20177;-65
2022/05/03 02:38:36;;;;;;;7.50;5.17;;;;;;;;;;5079611;28;20176;-65
2022/05/03 02:41:05;;;;;;;7.57;4.70;;;;;;;;;;5069568;28;20192;-65
2022/05/03 02:43:31;;;;;;;7.70;4.43;;;;;;;;;;5060335;28;20177;-65
2022/05/03 02:46:05;;;;;;;8.37;4.63;;;;;;;;;;5062638;28;20261;-65
2022/05/03 02:48:58;;;;;;;8.90;4.27;;;;;;;;;;5061768;28;20549;-65
2022/05/03 02:51:29;;;;;;;7.47;4.77;;;;;;;;;;5067539;28;20184;-65
2022/05/03 02:53:56;;;;;;;7.87;4.53;;;;;;;;;;5064673;28;20200;-66
2022/05/03 02:57:06;;;;;;;6.63;4.17;;;;;;;;;;5066333;28;20199;-66
2022/05/03 03:02:53;;;;;;;8.90;4.60;;;;;;;;;;5054466;28;20200;-65
2022/05/03 03:05:23;;;;;;;7.50;4.90;;;;;;;;;;5067825;28;20196;-65
2022/05/03 03:08:02;;;;;;;9.37;4.97;;;;;;;;;;5062563;28;20684;-66
2022/05/03 03:10:38;;;;;;;9.27;5.30;;;;;;;;;;5057691;28;20271;-66
2022/05/03 03:13:24;;;;;;;8.13;4.73;;;;;;;;;;5060932;28;20472;-65
2022/05/03 03:15:51;;;;;;;8.67;5.00;;;;;;;;;;5057463;28;20191;-67
2022/05/03 03:18:20;;;;;;;9.80;5.07;;;;;;;;;;5064640;28;20195;-66
2022/05/03 03:20:52;;;;;;;11.70;5.20;;;;;;;;;;5065567;28;20199;-65
2022/05/03 03:23:23;;;;;;;9.87;5.37;;;;;;;;;;5061852;28;20216;-66
2022/05/03 03:25:49;;;;;;;8.43;5.30;;;;;;;;;;5067412;28;20180;-65
2022/05/03 03:28:18;;;;;;;11.47;6.00;;;;;;;;;;5067771;28;20184;-65
2022/05/03 03:30:45;;;;;;;9.23;5.73;;;;;;;;;;5067011;28;20205;-66
2022/05/03 03:33:12;;;;;;;10.10;6.07;;;;;;;;;;5063154;28;20200;-66
2022/05/03 03:35:40;;;;;;;13.00;5.80;;;;;;;;;;5063282;28;20187;-66
2022/05/03 03:38:07;;;;;;;11.23;6.50;;;;;;;;;;5065515;28;20179;-66
2022/05/03 03:40:32;;;;;;;10.27;5.77;;;;;;;;;;5060123;28;20233;-65
2022/05/03 03:42:57;;;;;;;10.10;5.93;;;;;;;;;;5062623;28;20188;-65
2022/05/03 03:45:23;;;;;;;11.13;6.77;;;;;;;;;;5082756;28;20692;-66
2022/05/03 03:47:48;;;;;;;11.33;6.80;;;;;;;;;;5066809;28;20181;-66
2022/05/03 03:50:14;;;;;;;10.53;6.00;;;;;;;;;;5067129;28;20195;-66
2022/05/03 03:52:42;;;;;;;12.70;7.07;;;;;;;;;;5066566;28;20181;-66
2022/05/03 03:55:09;;;;;;;9.80;6.47;;;;;;;;;;5066805;28;20291;-66
2022/05/03 03:57:36;;;;;;;14.27;6.90;;;;;;;;;;5064725;28;20203;-66
2022/05/03 04:00:03;;;;;;;14.67;7.70;;;;;;;;;;5064884;28;20180;-66
2022/05/03 04:02:28;;;;;;;11.27;6.73;;;;;;;;;;5064747;28;20759;-66
2022/05/03 04:04:54;;;;;;;12.27;7.80;;;;;;;;;;5065294;28;20283;-67
2022/05/03 04:07:20;;;;;;;11.77;6.83;;;;;;;;;;5063129;28;20220;-66
2022/05/03 04:09:45;;;;;;;13.63;7.67;;;;;;;;;;5063275;28;20648;-66
2022/05/03 04:12:11;;;;;;;14.57;8.33;;;;;;;;;;5064642;28;20582;-66
2022/05/03 04:14:36;;;;;;;14.87;7.93;;;;;;;;;;5064346;28;20181;-66
2022/05/03 04:17:02;;;;;;;14.93;7.70;;;;;;;;;;5065893;28;20205;-65
2022/05/03 04:19:27;;;;;;;12.10;7.00;;;;;;;;;;5066011;28;20169;-66
2022/05/03 04:21:53;;;;;;;12.87;7.37;;;;;;;;;;5067221;28;20207;-66
2022/05/03 04:24:18;;;;;;;13.60;8.43;;;;;;;;;;5060499;28;20769;-66
2022/05/03 04:26:44;;;;;;;16.20;8.50;;;;;;;;;;5062118;28;20193;-66
2022/05/03 04:29:10;;;;;;;14.23;8.20;;;;;;;;;;5065297;28;20192;-66
2022/05/03 04:31:36;;;;;;;14.50;8.33;;;;;;;;;;5068279;28;20667;-66
2022/05/03 04:34:03;;;;;;;14.43;7.77;;;;;;;;;;5062336;28;20173;-66
2022/05/03 04:36:30;;;;;;;17.23;9.47;;;;;;;;;;5068194;28;20173;-66
2022/05/03 04:38:59;;;;;;;17.97;9.30;;;;;;;;;;5063739;28;20177;-66
2022/05/03 04:41:25;;;;;;;19.13;8.97;;;;;;;;;;5068485;28;20656;-66
2022/05/03 04:43:50;;;;;;;14.07;9.30;;;;;;;;;;5067983;28;20207;-66
2022/05/03 04:46:16;;;;;;;15.70;9.13;;;;;;;;;;5068461;28;20176;-66
2022/05/03 04:48:42;;;;;;;16.33;8.47;;;;;;;;;;5067551;28;20176;-66
2022/05/03 04:51:22;;;;;;;17.97;9.60;;;;;;;;;;5069181;28;20196;-66
2022/05/03 04:53:48;;;;;;;18.63;9.57;;;;;;;;;;5068027;28;20188;-66
2022/05/03 04:56:22;;;;;;;12.33;7.93;;;;;;;;;;5067491;28;20199;-66
2022/05/03 04:58:48;;;;;;;13.90;9.10;;;;;;;;;;5067736;28;20181;-66
2022/05/03 05:01:14;;;;;;;16.07;9.20;;;;;;;;;;5068286;28;20185;-66
2022/05/03 05:03:41;;;;;;;19.80;9.67;;;;;;;;;;5068501;28;20566;-66
2022/05/03 05:06:06;;;;;;;16.23;9.07;;;;;;;;;;5063399;28;20169;-65
2022/05/03 05:08:31;;;;;;;14.47;8.90;;;;;;;;;;5077357;28;20221;-65
2022/05/03 05:10:57;;;;;;;15.37;9.60;;;;;;;;;;5060807;28;20723;-65
2022/05/03 05:13:22;;;;;;;16.07;9.13;;;;;;;;;;5066274;28;20242;-65
2022/05/03 05:15:49;;;;;;;15.90;9.53;;;;;;;;;;5058463;28;20182;-65
2022/05/03 05:18:16;;;;;;;16.90;10.50;;;;;;;;;;5066276;28;20189;-66
2022/05/03 05:20:41;;;;;;;18.37;10.27;;;;;;;;;;5070540;28;20260;-65
2022/05/03 05:23:07;;;;;;;18.50;9.83;;;;;;;;;;5064449;28;20272;-65
2022/05/03 05:25:32;;;;;;;15.33;9.50;;;;;;;;;;5066772;28;20201;-66
2022/05/03 05:27:57;;;;;;;18.13;9.03;;;;;;;;;;5058950;28;20644;-65
2022/05/03 05:30:23;;;;;;;17.57;8.77;;;;;;;;;;5067246;28;20177;-65
2022/05/03 05:32:48;;;;;;;15.53;9.50;;;;;;;;;;5055775;28;20191;-66
2022/05/03 05:35:14;;;;;;;13.37;8.97;;;;;;;;;;5068539;28;20208;-65
2022/05/03 05:37:40;;;;;;;18.83;9.68;;;;;;;;;;5067348;28;20176;-66
2022/05/03 05:40:06;;;;;;;18.13;10.10;;;;;;;;;;5085555;28;20537;-65
2022/05/03 05:42:31;;;;;;;14.23;8.83;;;;;;;;;;5068580;28;20230;-65
2022/05/03 05:44:57;;;;;;;13.40;7.87;;;;;;;;;;5058738;28;20201;-65
2022/05/03 05:47:22;;;;;;;12.80;8.50;;;;;;;;;;5065470;28;20368;-65
2022/05/03 05:49:47;;;;;;;14.68;8.20;;;;;;;;;;5081747;28;20184;-65
2022/05/03 05:54:56;;;;;;;11.68;7.90;;;;;;;;;;5066155;28;20184;-66
2022/05/03 05:57:22;;;;;;;13.10;8.05;;;;;;;;;;5064783;28;21769;-66
2022/05/03 05:59:47;;;;;;;16.25;8.25;;;;;;;;;;5064862;28;20258;-66
2022/05/03 06:02:14;;;;;;;9.95;6.88;;;;;;;;;;5060124;28;20180;-66
2022/05/03 06:04:39;;;;;;;9.60;6.80;;;;;;;;;;5063426;28;20305;-66
2022/05/03 06:07:05;;;;;;;12.18;7.43;;;;;;;;;;5068452;28;20719;-66
2022/05/03 06:09:30;;;;;;;7.88;5.63;;;;;;;;;;5062912;28;20177;-66
2022/05/03 06:11:55;;;;;;;12.70;7.30;;;;;;;;;;5067540;28;20270;-66
2022/05/03 06:14:21;;;;;;;10.15;7.03;;;;;;;;;;5068383;28;20640;-66
2022/05/03 06:16:51;;;;;;;12.87;7.47;;;;;;;;;;5067204;28;20743;-66
2022/05/03 06:19:16;;;;;;;9.50;6.68;;;;;;;;;;5063903;28;20203;-66
2022/05/03 06:21:42;;;;;;;11.90;7.55;;;;;;;;;;5065674;28;20172;-65
2022/05/03 06:24:07;;;;;;;9.05;6.43;;;;;;;;;;5064760;28;20270;-65
2022/05/03 06:26:34;;;;;;;10.98;7.15;;;;;;;;;;5067523;28;20267;-65
2022/05/03 06:29:04;;;;;;;11.82;6.43;;;;;;;;;;5064949;28;20273;-65
2022/05/03 06:31:29;;;;;;;9.48;6.18;;;;;;;;;;5082241;28;20557;-65
2022/05/03 06:33:55;;;;;;;9.20;6.18;;;;;;;;;;5065462;28;20177;-65
2022/05/03 06:36:21;;;;;;;10.15;6.30;;;;;;;;;;5067110;28;20187;-65
2022/05/03 06:38:47;;;;;;;9.93;5.82;;;;;;;;;;5066733;28;20284;-65
2022/05/03 06:41:13;;;;;;;9.45;5.35;;;;;;;;;;5067366;28;20264;-65
2022/05/03 06:43:39;;;;;;;5.88;4.40;;;;;;;;;;5063703;28;20181;-66
2022/05/03 06:46:04;;;;;;;5.88;4.78;;;;;;;;;;5063654;28;20193;-66
2022/05/03 06:48:29;;;;;;;7.82;5.43;;;;;;;;;;5057772;28;20604;-65
2022/05/03 06:50:55;;;;;;;6.72;5.15;;;;;;;;;;5061797;28;20576;-65
2022/05/03 06:53:20;;;;;;;8.93;6.13;;;;;;;;;;5066470;28;20521;-65
2022/05/03 06:55:46;;;;;;;10.52;6.45;;;;;;;;;;5063145;28;20177;-66
2022/05/03 06:58:12;;;;;;;10.77;7.25;;;;;;;;;;5063347;28;20577;-65
2022/05/03 07:00:38;;;;;;;12.63;7.40;;;;;;;;;;5066406;28;20548;-65
2022/05/03 07:03:03;;;;;;;12.55;7.72;;;;;;;;;;5060191;28;20177;-66
2022/05/03 07:05:29;;;;;;;12.50;8.90;;;;;;;;;;5065336;28;20213;-66
2022/05/03 07:07:54;;;;;;;16.02;9.27;;;;;;;;;;5062848;28;20227;-65
2022/05/03 07:10:20;;;;;;;15.68;9.38;;;;;;;;;;5066922;28;20216;-65
2022/05/03 07:12:45;;;;;;;16.80;10.27;;;;;;;;;;5066234;28;20187;-66
2022/05/03 07:15:11;;;;;;;15.30;9.48;;;;;;;;;;5063501;28;20219;-66
2022/05/03 07:23:04;;;;;;;15.18;10.25;;;;;;;;;;5064876;28;20247;-66
2022/05/03 07:25:31;;;;;;;14.75;10.75;;;;;;;;;;5063611;28;20255;-66
2022/05/03 07:27:57;;;;;;;18.98;12.38;;;;;;;;;;5066010;28;20189;-68
2022/05/03 07:30:22;;;;;;;18.38;11.45;;;;;;;;;;5066210;28;20652;-67
2022/05/03 07:32:47;;;;;;;14.88;11.00;;;;;;;;;;5081542;28;20304;-66
2022/05/03 07:35:13;;;;;;;18.08;10.60;;;;;;;;;;5066968;28;20326;-66
2022/05/03 07:37:39;;;;;;;18.08;10.48;;;;;;;;;;5066083;28;20902;-66
2022/05/03 07:40:07;;;;;;;18.83;9.75;;;;;;;;;;5064511;28;20180;-67
2022/05/03 07:42:33;;;;;;;14.65;10.40;;;;;;;;;;5065399;28;20269;-67
2022/05/03 07:44:58;;;;;;;17.27;10.55;;;;;;;;;;5059594;28;20197;-67
2022/05/03 07:47:24;;;;;;;17.08;9.70;;;;;;;;;;5066614;28;20598;-67
2022/05/03 07:49:50;;;;;;;11.82;9.45;;;;;;;;;;5066118;28;20185;-66
2022/05/03 07:52:15;;;;;;;15.55;9.93;;;;;;;;;;5057603;28;20341;-67
2022/05/03 07:54:42;;;;;;;14.77;9.90;;;;;;;;;;5062417;28;20187;-67
2022/05/03 07:57:08;;;;;;;17.27;10.50;;;;;;;;;;5062152;28;20208;-67
2022/05/03 07:59:34;;;;;;;17.45;10.07;;;;;;;;;;5055519;28;20230;-67
2022/05/03 08:01:59;;;;;;;16.33;10.30;;;;;;;;;;5058762;28;20176;-67
2022/05/03 08:04:25;;;;;;;15.00;9.43;;;;;;;;;;5052127;28;20556;-66
2022/05/03 08:06:50;;;;;;;16.10;9.55;;;;;;;;;;5067009;28;20801;-66
2022/05/03 08:09:16;;;;;;;15.43;9.48;;;;;;;;;;5067472;28;20498;-67
2022/05/03 08:11:41;;;;;;;13.82;9.40;;;;;;;;;;5068165;28;20461;-67
2022/05/03 08:14:07;;;;;;;16.02;10.35;;;;;;;;;;5064986;28;20561;-67
2022/05/03 08:16:32;;;;;;;19.10;10.88;;;;;;;;;;5065954;28;20668;-67
2022/05/03 08:18:58;;;;;;;16.92;10.60;;;;;;;;;;5068436;28;20647;-67
2022/05/03 08:21:24;;;;;;;19.98;11.32;;;;;;;;;;5069524;28;20211;-67
2022/05/03 08:23:49;;;;;;;18.30;11.82;;;;;;;;;;5082581;28;20189;-69
2022/05/03 08:26:15;;;;;;;18.38;11.98;;;;;;;;;;5055851;28;20212;-67
2022/05/03 08:28:42;;;;;;;18.08;11.30;;;;;;;;;;5069555;28;20246;-67
2022/05/03 08:31:10;;;;;;;14.88;10.73;;;;;;;;;;5069620;28;20205;-66
2022/05/03 08:33:35;;;;;;;21.08;11.63;;;;;;;;;;5070170;28;20180;-67
2022/05/03 08:36:01;;;;;;;18.90;12.10;;;;;;;;;;5067105;28;20191;-68
2022/05/03 08:43:58;;;;;;;17.80;12.30;;;;;;;;;;5071250;28;20265;-68
2022/05/03 08:46:23;;;;;;;19.38;12.38;;;;;;;;;;5070184;28;20676;-68
2022/05/03 08:48:53;;;;;;;18.13;12.05;;;;;;;;;;5070273;28;20276;-67
2022/05/03 08:51:21;;;;;;;19.33;12.15;;;;;;;;;;5062979;28;20280;-67
2022/05/03 08:53:47;;;;;;;18.80;12.73;;;;;;;;;;5066492;28;20210;-67
2022/05/03 08:56:12;;;;;;;19.10;13.25;;;;;;;;;;5068617;28;20177;-68
2022/05/03 08:58:39;;;;;;;19.58;12.32;;;;;;;;;;5071724;28;20216;-71
2022/05/03 09:01:04;;;;;;;18.88;11.80;;;;;;;;;;5070927;28;20181;-67
2022/05/03 09:03:30;;;;;;;17.13;11.68;;;;;;;;;;5071519;28;20210;-67
2022/05/03 09:05:56;;;;;;;19.45;11.90;;;;;;;;;;5075274;28;20201;-67
2022/05/03 09:08:23;;;;;;;17.38;12.32;;;;;;;;;;5068714;28;20311;-67
2022/05/03 09:10:48;;;;;;;18.27;12.52;;;;;;;;;;5067475;28;20235;-66
2022/05/03 09:13:20;;;;;;;19.15;13.25;;;;;;;;;;5068664;28;20180;-67
2022/05/03 09:15:50;;;;;;;18.45;12.68;;;;;;;;;;5063999;28;20200;-66
2022/05/03 09:18:35;;;;;;;18.05;11.88;;;;;;;;;;5066111;28;20173;-66
2022/05/03 09:23:48;;;;;;;18.70;12.52;;;;;;;;;;5069401;28;20215;-66
2022/05/03 09:26:25;;;;;;;20.05;12.82;;;;;;;;;;5069860;28;20648;-66
2022/05/03 09:29:01;;;;;;;22.75;13.50;;;;;;;;;;5070039;28;20264;-66
2022/05/03 09:31:32;;;;;;;20.00;12.57;;;;;;;;;;5062369;28;20200;-65
2022/05/03 09:33:59;;;;;;;18.92;13.65;;;;;;;;;;5069378;28;20508;-66
2022/05/03 09:36:26;;;;;;;22.35;14.02;;;;;;;;;;5069367;28;20183;-66
2022/05/03 09:38:55;;;;;;;20.00;13.27;;;;;;;;;;5069524;28;20222;-66
2022/05/03 09:41:21;;;;;;;23.15;13.80;;;;;;;;;;5069054;28;20191;-66
2022/05/03 09:44:08;;;;;;;16.67;11.10;;;;;;;;;;5069424;28;20521;-66
2022/05/03 09:46:53;;;;;;;16.13;10.88;;;;;;;;;;5064868;28;20267;-67
2022/05/03 09:49:40;;;;;;;19.48;11.70;;;;;;;;;;5069841;28;20184;-67
2022/05/03 09:52:09;;;;;;;17.17;10.70;;;;;;;;;;5065641;28;20370;-67
2022/05/03 09:54:48;;;;;;;20.00;12.15;;;;;;;;;;5068622;28;20426;-67
2022/05/03 09:57:22;;;;;;;17.88;11.52;;;;;;;;;;5069128;28;20694;-66
2022/05/03 09:59:53;;;;;;;16.27;11.27;;;;;;;;;;5065626;28;20275;-67
2022/05/03 10:02:20;;;;;;;19.00;11.68;;;;;;;;;;5059516;28;20231;-67
2022/05/03 10:04:47;;;;;;;18.27;12.25;;;;;;;;;;5068548;28;20284;-66
2022/05/03 10:07:12;;;;;;;18.20;11.48;;;;;;;;;;5069283;28;20307;-67
2022/05/03 10:09:40;;;;;;;18.02;12.27;;;;;;;;;;5068816;28;20623;-67
2022/05/03 10:12:08;;;;;;;19.88;12.50;;;;;;;;;;5068017;28;20622;-67
2022/05/03 10:14:35;;;;;;;20.40;11.88;;;;;;;;;;5056639;28;20728;-67
2022/05/03 10:22:38;;;;;;;20.30;11.73;;;;;;;;;;5068511;28;20413;-67
2022/05/03 10:25:05;;;;;;;16.67;10.73;;;;;;;;;;5069257;28;20269;-67
2022/05/03 10:27:32;;;;;;;18.05;11.52;;;;;;;;;;5068139;28;20619;-67
2022/05/03 10:30:19;;;;;;;16.73;11.77;;;;;;;;;;5067110;28;20259;-67
2022/05/03 10:32:44;;;;;;;15.70;10.77;;;;;;;;;;5068460;28;20317;-67
2022/05/03 10:35:35;;;;;;;20.17;11.07;;;;;;;;;;5066642;28;20264;-66
2022/05/03 10:38:00;;;;;;;17.75;11.10;;;;;;;;;;5068971;28;20177;-67
2022/05/03 10:40:30;;;;;;;17.95;11.20;;;;;;;;;;5066302;28;20211;-67
2022/05/03 10:43:09;;;;;;;17.38;11.73;;;;;;;;;;5057450;28;20254;-67
2022/05/03 10:45:48;;;;;;;16.00;10.95;;;;;;;;;;5068160;28;20258;-68
2022/05/03 10:48:27;;;;;;;19.67;11.60;;;;;;;;;;5056714;28;20806;-68
2022/05/03 10:50:57;;;;;;;20.13;12.45;;;;;;;;;;5067962;28;20208;-67
2022/05/03 10:53:24;;;;;;;23.55;13.60;;;;;;;;;;5069325;28;20599;-67
2022/05/03 10:56:07;;;;;;;23.73;13.68;;;;;;;;;;5073009;28;20180;-67
2022/05/03 10:58:35;;;;;;;22.10;13.88;;;;;;;;;;5057906;28;20203;-66
2022/05/03 11:01:20;;;;;;;22.85;14.38;;;;;;;;;;5082792;28;20191;-67
2022/05/03 11:03:49;;;;;;;22.45;14.27;;;;;;;;;;5068006;28;20192;-67
2022/05/03 11:06:25;;;;;;;27.75;15.48;;;;;;;;;;5058333;28;20182;-67
2022/05/03 11:09:05;;;;;;;24.20;14.48;;;;;;;;;;5063954;28;20267;-66
2022/05/03 11:11:42;;;;;;;22.05;13.57;;;;;;;;;;5062422;28;20200;-66
2022/05/03 11:14:20;;;;;;;19.77;12.70;;;;;;;;;;5068131;28;20182;-76
2022/05/03 11:17:05;;;;;;;21.83;12.98;;;;;;;;;;5066885;28;20226;-67
2022/05/03 11:19:52;;;;;;;21.15;12.70;;;;;;;;;;5069115;28;20212;-67
2022/05/03 11:22:22;;;;;;;23.05;13.48;;;;;;;;;;5062364;28;20184;-67
2022/05/03 11:24:53;;;;;;;25.67;14.93;;;;;;;;;;5061904;28;20565;-67
2022/05/03 11:27:20;;;;;;;27.83;14.55;;;;;;;;;;5062515;28;20636;-67
2022/05/03 11:29:57;;;;;;;39.63;19.42;;;;;;;;;;5068194;28;20184;-67
2022/05/03 11:32:32;;;;;;;39.33;17.98;;;;;;;;;;5065504;28;20219;-67
2022/05/03 11:35:02;;;;;;;36.88;18.50;;;;;;;;;;5061859;28;20168;-67
2022/05/03 11:37:28;;;;;;;37.03;19.30;;;;;;;;;;5067631;28;20195;-67
2022/05/03 11:40:04;;;;;;;38.95;18.00;;;;;;;;;;5067021;28;20185;-67
2022/05/03 11:42:36;;;;;;;37.22;18.30;;;;;;;;;;5064032;28;20188;-67
2022/05/03 11:45:01;;;;;;;32.10;16.70;;;;;;;;;;5067802;28;20193;-68
2022/05/03 11:47:27;;;;;;;32.22;15.82;;;;;;;;;;5066759;28;20185;-67
2022/05/03 11:49:52;;;;;;;33.47;16.35;;;;;;;;;;5063466;28;20180;-67
2022/05/03 11:57:46;;;;;;;32.40;16.00;;;;;;;;;;5066961;28;20203;-68
2022/05/03 12:00:13;;;;;;;30.70;15.73;;;;;;;;;;5068262;28;20185;-70
2022/05/03 12:02:41;;;;;;;32.72;16.55;;;;;;;;;;5061349;28;20327;-68
2022/05/03 12:05:16;;;;;;;36.88;17.65;;;;;;;;;;5055166;28;20196;-77
2022/05/03 12:07:48;;;;;;;36.53;17.42;;;;;;;;;;5066906;28;20227;-68
2022/05/03 12:10:33;;;;;;;35.92;16.83;;;;;;;;;;5055251;28;20229;-68
2022/05/03 12:13:16;;;;;;;34.78;17.02;;;;;;;;;;5064982;28;20192;-67
2022/05/03 12:15:57;;;;;;;32.20;16.48;;;;;;;;;;5056108;28;20204;-67
2022/05/03 12:18:45;;;;;;;31.33;16.17;;;;;;;;;;5067380;28;20652;-69
2022/05/03 12:21:12;;;;;;;29.92;15.65;;;;;;;;;;5065868;28;20212;-67
2022/05/03 12:23:43;;;;;;;33.78;16.65;;;;;;;;;;5067616;28;20184;-67
2022/05/03 12:26:17;;;;;;;31.40;15.50;;;;;;;;;;5061034;28;20722;-68
2022/05/03 12:28:51;;;;;;;32.85;15.80;;;;;;;;;;5067062;28;20184;-79
2022/05/03 12:31:18;;;;;;;26.38;14.60;;;;;;;;;;5065942;28;20201;-67
2022/05/03 12:33:49;;;;;;;29.42;14.45;;;;;;;;;;5059110;28;20211;-68
2022/05/03 12:36:37;;;;;;;24.60;13.25;;;;;;;;;;5067650;28;20542;-68
2022/05/03 12:39:16;;;;;;;25.88;12.35;;;;;;;;;;5062228;28;20271;-68
2022/05/03 12:41:44;;;;;;;21.65;12.52;;;;;;;;;;5083252;28;20235;-68
2022/05/03 12:44:11;;;;;;;18.88;11.20;;;;;;;;;;5067200;28;20672;-68
2022/05/03 12:46:38;;;;;;;21.30;11.75;;;;;;;;;;5066614;28;20180;-68
2022/05/03 12:49:06;;;;;;;19.17;11.45;;;;;;;;;;5067709;28;20255;-69
2022/05/03 12:51:32;;;;;;;24.48;11.32;;;;;;;;;;5064305;28;20606;-68
2022/05/03 12:54:03;;;;;;;20.38;10.38;;;;;;;;;;5070191;28;20207;-68
2022/05/03 12:59:13;;;;;;;15.48;8.85;;;;;;;;;;5070527;28;20196;-68
2022/05/03 13:01:39;;;;;;;14.57;8.23;;;;;;;;;;5068048;28;20196;-75
2022/05/03 13:04:04;;;;;;;16.85;9.07;;;;;;;;;;5070960;28;20234;-71
2022/05/03 13:06:30;;;;;;;12.82;7.65;;;;;;;;;;5065458;28;20180;-70
2022/05/03 13:08:55;;;;;;;14.98;8.55;;;;;;;;;;5060092;28;20618;-67
2022/05/03 13:11:21;;;;;;;17.85;8.50;;;;;;;;;;5069278;28;20177;-67
2022/05/03 13:13:46;;;;;;;12.50;8.07;;;;;;;;;;5070820;28;20238;-66
2022/05/03 13:16:11;;;;;;;15.77;8.15;;;;;;;;;;5066975;28;20184;-68
2022/05/03 13:18:37;;;;;;;19.42;8.88;;;;;;;;;;5069348;28;20272;-68
2022/05/03 13:21:02;;;;;;;17.77;8.15;;;;;;;;;;5066884;28;20185;-68
2022/05/03 13:23:30;;;;;;;15.23;8.75;;;;;;;;;;5068158;28;20631;-67
2022/05/03 13:25:56;;;;;;;22.90;8.88;;;;;;;;;;5068795;28;20209;-74
2022/05/03 13:28:21;;;;;;;17.38;8.25;;;;;;;;;;5069785;28;20200;-67
2022/05/03 13:30:47;;;;;;;19.35;8.50;;;;;;;;;;5068684;28;20216;-68
2022/05/03 13:33:12;;;;;;;16.25;8.38;;;;;;;;;;5069324;28;20181;-67
2022/05/03 13:41:06;;;;;;;16.52;8.65;;;;;;;;;;5069190;28;20249;-73
2022/05/03 13:43:31;;;;;;;19.48;8.38;;;;;;;;;;5068213;28;20180;-67
2022/05/03 13:45:58;;;;;;;15.35;8.88;;;;;;;;;;5064721;28;20645;-67
2022/05/03 13:48:24;;;;;;;16.17;8.20;;;;;;;;;;5056246;28;20189;-67
2022/05/03 13:50:50;;;;;;;19.20;7.93;;;;;;;;;;5068875;28;20184;-69
2022/05/03 13:53:15;;;;;;;16.08;7.65;;;;;;;;;;5069017;28;20229;-67
2022/05/03 13:55:40;;;;;;;17.95;9.93;;;;;;;;;;5070052;28;20276;-67
2022/05/03 13:58:10;;;;;;;17.83;8.15;;;;;;;;;;5062588;28;20204;-70
2022/05/03 14:00:38;;;;;;;18.88;8.43;;;;;;;;;;5066580;28;20648;-69
2022/05/03 14:03:07;;;;;;;18.75;7.95;;;;;;;;;;5053355;28;20655;-67
2022/05/03 14:05:32;;;;;;;17.05;8.40;;;;;;;;;;5069537;28;20203;-68
2022/05/03 14:07:58;;;;;;;14.45;7.70;;;;;;;;;;5068348;28;20638;-67
2022/05/03 14:10:23;;;;;;;16.55;7.70;;;;;;;;;;5069537;28;20620;-67
2022/05/03 14:12:49;;;;;;;17.25;8.05;;;;;;;;;;5064869;28;20258;-67
2022/05/03 14:15:15;;;;;;;18.35;8.35;;;;;;;;;;5068784;28;20188;-67
2022/05/03 14:17:42;;;;;;;15.40;7.60;;;;;;;;;;5068909;28;20211;-67
2022/05/03 14:20:08;;;;;;;13.63;7.30;;;;;;;;;;5069389;28;20169;-68
2022/05/03 14:22:33;;;;;;;19.55;7.75;;;;;;;;;;5067447;28;20181;-66
2022/05/03 14:24:59;;;;;;;16.27;7.35;;;;;;;;;;5068223;28;20196;-67
2022/05/03 14:27:24;;;;;;;17.00;7.38;;;;;;;;;;5066926;28;20187;-75
2022/05/03 14:29:49;;;;;;;13.70;7.18;;;;;;;;;;5066748;28;20176;-67
2022/05/03 14:32:15;;;;;;;15.02;7.03;;;;;;;;;;5066182;28;20215;-67
2022/05/03 14:34:41;;;;;;;15.65;6.55;;;;;;;;;;5059730;28;20583;-67
2022/05/03 14:37:06;;;;;;;14.80;6.78;;;;;;;;;;5068592;28;20181;-69
2022/05/03 14:39:31;;;;;;;16.25;7.20;;;;;;;;;;5068525;28;20185;-74
2022/05/03 14:42:00;;;;;;;15.65;6.30;;;;;;;;;;5062345;28;20315;-67
2022/05/03 14:44:25;;;;;;;15.70;6.95;;;;;;;;;;5051680;28;20754;-67
2022/05/03 14:46:51;;;;;;;11.90;6.38;;;;;;;;;;5062409;28;20223;-67
2022/05/03 14:49:17;;;;;;;13.57;6.50;;;;;;;;;;5063298;28;20637;-67
2022/05/03 14:51:42;;;;;;;14.50;6.13;;;;;;;;;;5064945;28;20181;-69
2022/05/03 14:54:08;;;;;;;11.38;5.97;;;;;;;;;;5054902;28;20181;-67
2022/05/03 15:04:46;;;;;;;13.52;5.63;;;;;;;;;;5065414;28;20216;-68
2022/05/03 15:07:12;;;;;;;12.48;5.65;;;;;;;;;;5059559;28;20237;-68
2022/05/03 15:09:37;;;;;;;10.90;5.88;;;;;;;;;;5063444;28;20200;-67
2022/05/03 15:12:03;;;;;;;10.55;5.70;;;;;;;;;;5067613;28;20196;-67
2022/05/03 15:14:28;;;;;;;9.77;5.25;;;;;;;;;;5063547;28;20185;-70
2022/05/03 15:16:54;;;;;;;14.48;4.97;;;;;;;;;;5063794;28;20174;-68
2022/05/03 15:19:19;;;;;;;11.23;5.50;;;;;;;;;;5066848;28;20181;-67
2022/05/03 15:21:44;;;;;;;12.68;5.13;;;;;;;;;;5066436;28;20206;-67
2022/05/03 15:26:54;;;;;;;8.80;4.72;;;;;;;;;;5065467;28;20191;-66
2022/05/03 15:29:19;;;;;;;9.90;5.65;;;;;;;;;;5063529;28;20189;-67
2022/05/03 15:31:47;;;;;;;8.98;4.70;;;;;;;;;;5067394;28;20287;-68
2022/05/03 15:34:15;;;;;;;11.77;4.88;;;;;;;;;;5066173;28;20317;-65
2022/05/03 15:36:40;;;;;;;8.07;4.47;;;;;;;;;;5083379;28;20223;-70
2022/05/03 15:39:06;;;;;;;9.60;4.20;;;;;;;;;;5067663;28;20242;-66
2022/05/03 15:41:31;;;;;;;9.93;4.03;;;;;;;;;;5065776;28;20301;-67